Time;durP1;ratioP1;P1;durP2;ratioP2;P2;SDS_P1;SDS_P2;PMS_P1;PMS_P2;Temp;Humidity;BMP_temperature;BMP_pressure;BME280_temperature;BME280_humidity;BME280_pressure;Samples;Min_cycle;Max_cycle;Signal;HPM_P1;HPM_P2
2021/09/06 00:00:47;;;;;;;18.77;15.07;;;15.70;99.90;;;;;;2081203;28;20044;-73
2021/09/06 00:01:48;;;;;;;15.90;13.82;;;15.60;99.90;;;;;;2080565;28;20040;-73
2021/09/06 00:02:48;;;;;;;16.70;14.23;;;15.60;99.90;;;;;;2080431;28;20021;-72
2021/09/06 00:03:49;;;;;;;16.00;13.32;;;15.60;99.90;;;;;;2081000;28;20079;-72
2021/09/06 00:04:49;;;;;;;15.80;14.00;;;15.60;99.90;;;;;;2081018;28;20026;-73
2021/09/06 00:05:50;;;;;;;16.63;13.98;;;15.60;99.90;;;;;;2080804;28;20499;-72
2021/09/06 00:06:50;;;;;;;16.17;13.52;;;15.60;99.90;;;;;;2080968;28;20037;-73
2021/09/06 00:07:51;;;;;;;17.05;13.25;;;15.60;99.90;;;;;;2084548;28;20025;-73
2021/09/06 00:08:51;;;;;;;15.52;13.90;;;15.60;99.90;;;;;;2081149;28;20052;-73
2021/09/06 00:10:03;;;;;;;15.13;13.68;;;15.60;99.90;;;;;;2080053;28;20056;-72
2021/09/06 00:11:06;;;;;;;16.10;14.02;;;15.60;99.90;;;;;;2084045;28;20389;-74
2021/09/06 00:12:08;;;;;;;15.30;13.73;;;15.50;99.90;;;;;;2088380;28;20369;-72
2021/09/06 00:13:11;;;;;;;17.52;14.48;;;15.60;99.90;;;;;;2088762;28;20038;-72
2021/09/06 00:14:12;;;;;;;16.02;13.93;;;15.50;99.90;;;;;;2088747;28;20070;-74
2021/09/06 00:15:12;;;;;;;17.95;14.23;;;15.50;99.90;;;;;;2089293;28;20091;-75
2021/09/06 00:16:13;;;;;;;16.02;13.80;;;15.50;99.90;;;;;;2088820;28;20029;-75
2021/09/06 00:17:13;;;;;;;15.80;14.00;;;15.50;99.90;;;;;;2086935;28;20039;-75
2021/09/06 00:18:14;;;;;;;15.93;14.27;;;15.50;99.90;;;;;;2080584;28;20033;-74
2021/09/06 00:19:15;;;;;;;16.52;14.80;;;15.50;99.90;;;;;;2080810;28;20025;-75
2021/09/06 00:20:16;;;;;;;18.38;14.73;;;15.50;99.90;;;;;;2080661;28;20017;-75
2021/09/06 00:21:17;;;;;;;15.57;13.55;;;15.40;99.90;;;;;;2080642;28;20075;-72
2021/09/06 00:22:17;;;;;;;15.32;13.70;;;15.40;99.90;;;;;;2080354;28;20409;-75
2021/09/06 00:23:18;;;;;;;15.82;14.18;;;15.40;99.90;;;;;;2080479;28;20096;-75
2021/09/06 00:24:18;;;;;;;16.20;13.63;;;15.40;99.90;;;;;;2080842;28;20469;-75
2021/09/06 00:25:20;;;;;;;16.80;14.85;;;15.40;99.90;;;;;;2080022;28;20022;-75
2021/09/06 00:26:21;;;;;;;16.17;14.57;;;15.40;99.90;;;;;;2079238;28;20572;-72
2021/09/06 00:27:21;;;;;;;16.42;14.63;;;15.40;99.90;;;;;;2081538;28;20389;-75
2021/09/06 00:28:22;;;;;;;17.65;14.13;;;15.40;99.90;;;;;;2087966;28;20021;-75
2021/09/06 00:29:23;;;;;;;16.25;14.55;;;15.40;99.90;;;;;;2081061;28;20417;-72
2021/09/06 00:30:24;;;;;;;15.30;13.52;;;15.40;99.90;;;;;;2080958;28;20491;-75
2021/09/06 00:31:24;;;;;;;16.35;13.27;;;15.30;99.90;;;;;;2080608;28;20582;-75
2021/09/06 00:32:25;;;;;;;16.60;14.68;;;15.30;99.90;;;;;;2079677;28;20026;-72
2021/09/06 00:33:25;;;;;;;15.20;13.63;;;15.30;99.90;;;;;;2071827;28;20022;-75
2021/09/06 00:34:26;;;;;;;19.23;15.20;;;15.30;99.90;;;;;;2080045;28;20033;-75
2021/09/06 00:35:27;;;;;;;19.15;14.15;;;15.30;99.90;;;;;;2080615;28;20030;-75
2021/09/06 00:36:27;;;;;;;15.30;13.63;;;15.30;99.90;;;;;;2080944;28;20500;-75
2021/09/06 00:37:28;;;;;;;16.80;14.55;;;15.30;99.90;;;;;;2082810;28;20048;-75
2021/09/06 00:38:28;;;;;;;18.80;14.90;;;15.30;99.90;;;;;;2086510;28;20067;-75
2021/09/06 00:39:29;;;;;;;15.10;13.55;;;15.30;99.90;;;;;;2080607;28;20036;-75
2021/09/06 00:40:29;;;;;;;17.52;15.10;;;15.30;99.90;;;;;;2079918;28;20071;-75
2021/09/06 00:41:30;;;;;;;16.75;14.05;;;15.30;99.90;;;;;;2071802;28;20030;-75
2021/09/06 00:42:30;;;;;;;17.48;14.73;;;15.30;99.90;;;;;;2080138;28;20473;-75
2021/09/06 00:43:31;;;;;;;17.58;15.63;;;15.20;99.90;;;;;;2079986;28;20021;-75
2021/09/06 00:44:32;;;;;;;16.38;14.02;;;15.20;99.90;;;;;;2080662;28;20129;-75
2021/09/06 00:45:32;;;;;;;17.67;14.88;;;15.20;99.90;;;;;;2079927;28;20049;-75
2021/09/06 00:46:33;;;;;;;16.23;14.52;;;15.20;99.90;;;;;;2080890;28;20022;-75
2021/09/06 00:47:35;;;;;;;17.45;14.57;;;15.20;99.90;;;;;;2084295;28;20037;-72
2021/09/06 00:48:35;;;;;;;16.73;14.27;;;15.20;99.90;;;;;;2083323;28;20454;-75
2021/09/06 00:49:36;;;;;;;15.50;13.90;;;15.20;99.90;;;;;;2080310;28;20195;-75
2021/09/06 00:50:37;;;;;;;14.82;13.02;;;15.20;99.90;;;;;;2085957;28;20059;-75
2021/09/06 00:51:37;;;;;;;16.88;14.85;;;15.20;99.90;;;;;;2084238;28;20049;-75
2021/09/06 00:52:40;;;;;;;18.10;14.57;;;15.10;99.90;;;;;;2079495;28;20092;-75
2021/09/06 00:53:41;;;;;;;18.85;14.00;;;15.10;99.90;;;;;;2079699;28;20109;-75
2021/09/06 00:54:42;;;;;;;17.20;15.38;;;15.10;99.90;;;;;;2080353;28;20025;-75
2021/09/06 00:55:42;;;;;;;17.08;14.90;;;15.10;99.90;;;;;;2079542;28;20837;-74
2021/09/06 00:56:43;;;;;;;17.08;15.25;;;15.10;99.90;;;;;;2080579;28;20029;-75
2021/09/06 00:57:45;;;;;;;17.20;15.02;;;15.10;99.90;;;;;;2084838;28;20046;-75
2021/09/06 00:58:46;;;;;;;17.35;14.85;;;15.10;99.90;;;;;;2086239;28;20036;-75
2021/09/06 00:59:47;;;;;;;19.20;13.88;;;15.10;99.90;;;;;;2084722;28;20463;-75
2021/09/06 01:00:48;;;;;;;19.02;15.07;;;15.10;99.90;;;;;;2079939;28;20033;-75
2021/09/06 01:01:48;;;;;;;16.88;14.40;;;15.10;99.90;;;;;;2079469;28;20371;-75
2021/09/06 01:02:49;;;;;;;17.33;14.90;;;15.00;99.90;;;;;;2080122;28;20083;-74
2021/09/06 01:03:49;;;;;;;21.15;15.70;;;15.00;99.90;;;;;;2080432;28;20081;-74
2021/09/06 01:04:50;;;;;;;16.25;14.00;;;15.10;99.90;;;;;;2079869;28;20037;-74
2021/09/06 01:05:51;;;;;;;18.33;14.25;;;15.00;99.90;;;;;;2079870;28;20029;-75
2021/09/06 01:06:51;;;;;;;16.80;14.55;;;15.00;99.90;;;;;;2079726;28;20037;-74
2021/09/06 01:07:52;;;;;;;17.55;14.73;;;15.00;99.90;;;;;;2079739;28;20031;-75
2021/09/06 01:08:52;;;;;;;15.70;13.90;;;15.00;99.90;;;;;;2088571;28;20053;-74
2021/09/06 01:09:54;;;;;;;15.38;13.75;;;15.00;99.90;;;;;;2086277;28;20096;-75
2021/09/06 01:10:54;;;;;;;15.90;13.30;;;15.00;99.90;;;;;;2087584;28;20029;-74
2021/09/06 01:11:55;;;;;;;16.70;14.90;;;15.00;99.90;;;;;;2087767;28;20028;-74
2021/09/06 01:12:55;;;;;;;17.08;14.48;;;15.00;99.90;;;;;;2082641;28;20102;-75
2021/09/06 01:13:56;;;;;;;17.05;15.15;;;14.90;99.90;;;;;;2079983;28;20109;-75
2021/09/06 01:14:57;;;;;;;17.17;13.95;;;14.90;99.90;;;;;;2080468;28;20482;-75
2021/09/06 01:15:57;;;;;;;18.20;15.02;;;14.90;99.90;;;;;;2085221;28;20122;-74
2021/09/06 01:16:59;;;;;;;17.83;15.35;;;14.90;99.90;;;;;;2088861;28;20021;-74
2021/09/06 01:17:59;;;;;;;17.25;15.27;;;14.90;99.90;;;;;;2084604;28;20021;-74
2021/09/06 01:19:00;;;;;;;15.60;14.07;;;14.90;99.90;;;;;;2086479;28;20036;-74
2021/09/06 01:20:01;;;;;;;17.08;14.55;;;14.90;99.90;;;;;;2079577;28;20025;-74
2021/09/06 01:21:01;;;;;;;15.65;14.07;;;14.90;99.90;;;;;;2079677;28;20092;-75
2021/09/06 01:22:02;;;;;;;16.90;14.45;;;14.90;99.90;;;;;;2079190;28;20472;-74
2021/09/06 01:23:03;;;;;;;17.05;15.25;;;14.90;99.90;;;;;;2079314;28;20037;-75
2021/09/06 01:24:03;;;;;;;19.52;14.75;;;14.90;99.90;;;;;;2080955;28;20049;-74
2021/09/06 01:25:05;;;;;;;17.45;14.52;;;14.90;99.90;;;;;;2086924;28;20040;-75
2021/09/06 01:26:06;;;;;;;16.52;14.80;;;14.90;99.90;;;;;;2081387;28;20038;-75
2021/09/06 01:27:06;;;;;;;16.52;14.52;;;14.90;99.90;;;;;;2080367;28;20114;-74
2021/09/06 01:28:07;;;;;;;16.63;14.43;;;14.80;99.90;;;;;;2080198;28;20026;-75
2021/09/06 01:29:08;;;;;;;16.40;14.70;;;14.80;99.90;;;;;;2080045;28;20041;-75
2021/09/06 01:30:09;;;;;;;16.90;15.15;;;14.80;99.90;;;;;;2086591;28;20052;-75
2021/09/06 01:31:09;;;;;;;17.50;15.13;;;14.80;99.90;;;;;;2080156;28;20030;-75
2021/09/06 01:32:11;;;;;;;17.30;15.15;;;14.80;99.90;;;;;;2079916;28;20039;-75
2021/09/06 01:33:11;;;;;;;17.10;15.30;;;14.70;99.90;;;;;;2079818;28;20057;-75
2021/09/06 01:34:12;;;;;;;17.08;15.27;;;14.70;99.90;;;;;;2086962;28;20036;-74
2021/09/06 01:35:12;;;;;;;18.73;16.10;;;14.70;99.90;;;;;;2086589;28;20025;-75
2021/09/06 01:36:13;;;;;;;16.02;14.18;;;14.70;99.90;;;;;;2080087;28;20033;-74
2021/09/06 01:37:14;;;;;;;16.13;14.52;;;14.70;99.90;;;;;;2079198;28;20104;-74
2021/09/06 01:38:14;;;;;;;19.33;15.52;;;14.70;99.90;;;;;;2078625;28;20079;-75
2021/09/06 01:39:15;;;;;;;15.68;14.05;;;14.70;99.90;;;;;;2080009;28;20029;-74
2021/09/06 01:40:18;;;;;;;17.88;15.13;;;14.70;99.90;;;;;;2080218;28;20362;-75
2021/09/06 01:41:19;;;;;;;18.48;15.52;;;14.70;99.90;;;;;;2080166;28;20028;-75
2021/09/06 01:42:19;;;;;;;15.75;14.07;;;14.60;99.90;;;;;;2081606;28;20024;-75
2021/09/06 01:43:20;;;;;;;17.05;15.40;;;14.70;99.90;;;;;;2079102;28;20064;-75
2021/09/06 01:44:21;;;;;;;16.70;14.82;;;14.70;99.90;;;;;;2087570;28;20131;-75
2021/09/06 01:45:22;;;;;;;17.77;15.48;;;14.70;99.90;;;;;;2082947;28;20026;-75
2021/09/06 01:46:30;;;;;;;15.98;14.30;;;14.60;99.90;;;;;;2080221;28;20869;-74
2021/09/06 01:47:31;;;;;;;17.80;15.35;;;14.60;99.90;;;;;;2079899;28;20044;-74
2021/09/06 01:48:32;;;;;;;18.40;15.40;;;14.60;99.90;;;;;;2080049;28;20029;-75
2021/09/06 01:49:32;;;;;;;15.95;14.30;;;14.60;99.90;;;;;;2079356;28;20549;-74
2021/09/06 01:50:33;;;;;;;17.42;14.55;;;14.60;99.90;;;;;;2079355;28;20068;-75
2021/09/06 01:51:34;;;;;;;17.15;15.50;;;14.60;99.90;;;;;;2079465;28;20511;-75
2021/09/06 01:52:34;;;;;;;18.23;15.50;;;14.60;99.90;;;;;;2079741;28;20029;-74
2021/09/06 01:53:35;;;;;;;20.67;16.17;;;14.60;99.90;;;;;;2079973;28;20047;-74
2021/09/06 01:54:35;;;;;;;17.35;15.60;;;14.60;99.90;;;;;;2080287;28;20035;-75
2021/09/06 01:55:36;;;;;;;17.17;15.13;;;14.60;99.90;;;;;;2079805;28;20462;-75
2021/09/06 01:56:37;;;;;;;18.77;16.75;;;14.50;99.90;;;;;;2080860;28;20062;-75
2021/09/06 01:57:38;;;;;;;20.10;15.10;;;14.50;99.90;;;;;;2079427;28;20068;-75
2021/09/06 01:58:38;;;;;;;19.15;15.18;;;14.50;99.90;;;;;;2084571;28;20392;-75
2021/09/06 01:59:39;;;;;;;17.08;15.18;;;14.50;99.90;;;;;;2085164;28;20017;-75
2021/09/06 02:00:39;;;;;;;15.23;13.60;;;14.50;99.90;;;;;;2079279;28;20057;-75
2021/09/06 02:01:40;;;;;;;17.05;14.95;;;14.50;99.90;;;;;;2079708;28;20445;-75
2021/09/06 02:02:40;;;;;;;18.25;16.27;;;14.50;99.90;;;;;;2079526;28;20477;-75
2021/09/06 02:03:41;;;;;;;17.63;15.82;;;14.50;99.90;;;;;;2079899;28;20378;-75
2021/09/06 02:04:42;;;;;;;17.13;15.20;;;14.50;99.90;;;;;;2080006;28;20025;-75
2021/09/06 02:05:42;;;;;;;15.45;13.88;;;14.50;99.90;;;;;;2080134;28;20052;-75
2021/09/06 02:06:43;;;;;;;16.63;14.90;;;14.50;99.90;;;;;;2079861;28;20032;-75
2021/09/06 02:07:43;;;;;;;18.48;16.55;;;14.50;99.90;;;;;;2079694;28;20044;-75
2021/09/06 02:08:44;;;;;;;17.92;16.08;;;14.40;99.90;;;;;;2080299;28;20061;-75
2021/09/06 02:09:44;;;;;;;19.80;17.48;;;14.50;99.90;;;;;;2080085;28;20030;-75
2021/09/06 02:10:45;;;;;;;17.15;15.05;;;14.50;99.90;;;;;;2080682;28;20031;-75
2021/09/06 02:11:45;;;;;;;17.77;15.43;;;14.40;99.90;;;;;;2087577;28;20860;-75
2021/09/06 02:12:46;;;;;;;18.10;15.98;;;14.40;99.90;;;;;;2080957;28;20079;-75
2021/09/06 02:13:47;;;;;;;18.52;16.52;;;14.40;99.90;;;;;;2080032;28;20065;-75
2021/09/06 02:14:47;;;;;;;21.35;17.83;;;14.40;99.90;;;;;;2080131;28;20460;-75
2021/09/06 02:15:48;;;;;;;22.67;17.13;;;14.40;99.90;;;;;;2080132;28;20031;-75
2021/09/06 02:16:48;;;;;;;19.75;17.08;;;14.40;99.90;;;;;;2079705;28;20022;-75
2021/09/06 02:17:49;;;;;;;16.95;14.98;;;14.40;99.90;;;;;;2081854;28;20029;-75
2021/09/06 02:18:49;;;;;;;18.00;15.73;;;14.40;99.90;;;;;;2079904;28;20029;-75
2021/09/06 02:19:50;;;;;;;19.33;16.42;;;14.40;99.90;;;;;;2080262;28;20025;-75
2021/09/06 02:20:51;;;;;;;16.23;14.52;;;14.40;99.90;;;;;;2079660;28;20025;-75
2021/09/06 02:21:51;;;;;;;18.90;16.90;;;14.40;99.90;;;;;;2078736;28;20021;-75
2021/09/06 02:22:52;;;;;;;17.98;16.08;;;14.40;99.90;;;;;;2078523;28;20063;-75
2021/09/06 02:23:52;;;;;;;20.42;17.02;;;14.40;99.90;;;;;;2080135;28;20044;-75
2021/09/06 02:24:53;;;;;;;18.60;15.55;;;14.40;99.90;;;;;;2079801;28;20017;-75
2021/09/06 02:25:53;;;;;;;19.13;16.92;;;14.40;99.90;;;;;;2079847;28;20477;-75
2021/09/06 02:26:54;;;;;;;20.25;16.40;;;14.40;99.90;;;;;;2079784;28;20185;-75
2021/09/06 02:27:55;;;;;;;18.98;16.80;;;14.30;99.90;;;;;;2080180;28;20393;-75
2021/09/06 02:28:55;;;;;;;21.08;17.45;;;14.30;99.90;;;;;;2083372;28;20033;-75
2021/09/06 02:29:56;;;;;;;18.33;16.40;;;14.30;99.90;;;;;;2079922;28;20104;-75
2021/09/06 02:30:57;;;;;;;16.45;14.75;;;14.30;99.90;;;;;;2079550;28;20123;-75
2021/09/06 02:31:57;;;;;;;16.85;15.10;;;14.30;99.90;;;;;;2079781;28;20606;-75
2021/09/06 02:32:58;;;;;;;18.70;16.00;;;14.30;99.90;;;;;;2079713;28;20036;-75
2021/09/06 02:33:58;;;;;;;17.38;15.57;;;14.30;99.90;;;;;;2079648;28;20028;-75
2021/09/06 02:34:59;;;;;;;18.75;15.45;;;14.30;99.90;;;;;;2079808;28;20071;-75
2021/09/06 02:35:59;;;;;;;20.33;15.68;;;14.30;99.90;;;;;;2079916;28;20116;-75
2021/09/06 02:37:00;;;;;;;19.30;17.20;;;14.20;99.90;;;;;;2080993;28;20088;-75
2021/09/06 02:38:01;;;;;;;19.83;17.33;;;14.20;99.90;;;;;;2079126;28;20029;-75
2021/09/06 02:39:03;;;;;;;20.42;18.27;;;14.20;99.90;;;;;;2079810;28;20017;-75
2021/09/06 02:40:04;;;;;;;18.95;16.98;;;14.20;99.90;;;;;;2079864;28;20029;-75
2021/09/06 02:41:04;;;;;;;18.55;16.63;;;14.20;99.90;;;;;;2078784;28;20110;-75
2021/09/06 02:42:05;;;;;;;19.35;17.17;;;14.20;99.90;;;;;;2079004;28;20022;-75
2021/09/06 02:43:05;;;;;;;19.05;15.73;;;14.20;99.90;;;;;;2079375;28;20053;-75
2021/09/06 02:44:06;;;;;;;17.75;15.80;;;14.20;99.90;;;;;;2079709;28;20075;-77
2021/09/06 02:45:07;;;;;;;21.10;18.05;;;14.20;99.90;;;;;;2080913;28;20112;-75
2021/09/06 02:46:08;;;;;;;17.70;15.80;;;14.20;99.90;;;;;;2079585;28;20046;-75
2021/09/06 02:47:09;;;;;;;20.05;17.45;;;14.20;99.90;;;;;;2079594;28;20016;-75
2021/09/06 02:48:09;;;;;;;24.25;18.23;;;14.20;99.90;;;;;;2079604;28;20043;-75
2021/09/06 02:49:10;;;;;;;20.60;17.10;;;14.10;99.90;;;;;;2078483;28;20072;-75
2021/09/06 02:50:10;;;;;;;19.63;17.48;;;14.10;99.90;;;;;;2079069;28;20056;-75
2021/09/06 02:51:11;;;;;;;19.95;16.30;;;14.10;99.90;;;;;;2080225;28;20770;-75
2021/09/06 02:52:11;;;;;;;20.70;17.27;;;14.10;99.90;;;;;;2079219;28;20026;-75
2021/09/06 02:53:12;;;;;;;20.00;15.90;;;14.10;99.90;;;;;;2079541;28;20056;-75
2021/09/06 02:54:15;;;;;;;17.92;16.02;;;14.10;99.90;;;;;;2079538;28;20489;-75
2021/09/06 02:55:15;;;;;;;19.80;16.27;;;14.10;99.90;;;;;;2078957;28;20080;-75
2021/09/06 02:56:16;;;;;;;18.95;16.08;;;14.10;99.90;;;;;;2079580;28;20078;-75
2021/09/06 02:57:17;;;;;;;20.17;16.80;;;14.00;99.90;;;;;;2079488;28;20014;-75
2021/09/06 02:58:17;;;;;;;20.40;15.90;;;14.10;99.90;;;;;;2081482;28;20026;-75
2021/09/06 02:59:18;;;;;;;18.10;16.17;;;14.10;99.90;;;;;;2086055;28;20145;-75
2021/09/06 03:00:20;;;;;;;19.08;16.38;;;14.10;99.90;;;;;;2080947;28;20578;-75
2021/09/06 03:01:20;;;;;;;19.35;16.58;;;14.00;99.90;;;;;;2086823;28;20032;-75
2021/09/06 03:02:21;;;;;;;21.73;17.52;;;14.00;99.90;;;;;;2087545;28;20504;-75
2021/09/06 03:03:22;;;;;;;18.13;16.25;;;14.00;99.90;;;;;;2091483;28;20527;-75
2021/09/06 03:04:22;;;;;;;19.02;16.90;;;14.00;99.90;;;;;;2093253;28;20021;-75
2021/09/06 03:05:23;;;;;;;20.13;18.02;;;14.00;99.90;;;;;;2087982;28;20021;-75
2021/09/06 03:06:24;;;;;;;21.33;17.20;;;14.00;99.90;;;;;;2082777;28;20029;-75
2021/09/06 03:07:24;;;;;;;19.30;16.73;;;14.00;99.90;;;;;;2079580;28;20022;-75
2021/09/06 03:08:25;;;;;;;17.67;15.77;;;14.00;99.90;;;;;;2087637;28;20025;-77
2021/09/06 03:09:27;;;;;;;18.35;16.10;;;13.90;99.90;;;;;;2084772;28;20032;-75
2021/09/06 03:10:27;;;;;;;17.70;15.77;;;13.90;99.90;;;;;;2086026;28;20044;-75
2021/09/06 03:11:28;;;;;;;17.77;15.88;;;13.90;99.90;;;;;;2087600;28;20434;-75
2021/09/06 03:12:28;;;;;;;18.60;16.60;;;13.90;99.90;;;;;;2087748;28;20063;-75
2021/09/06 03:13:30;;;;;;;19.25;16.17;;;13.90;99.90;;;;;;2082936;28;20057;-75
2021/09/06 03:14:31;;;;;;;18.90;15.80;;;13.90;99.90;;;;;;2078638;28;20029;-75
2021/09/06 03:15:31;;;;;;;19.17;17.08;;;13.90;99.90;;;;;;2078846;28;20036;-75
2021/09/06 03:16:32;;;;;;;19.20;17.27;;;13.90;99.90;;;;;;2086839;28;20029;-75
2021/09/06 03:17:32;;;;;;;18.98;17.08;;;13.90;99.90;;;;;;2083983;28;20033;-75
2021/09/06 03:18:33;;;;;;;18.17;16.27;;;13.80;99.90;;;;;;2086817;28;20079;-75
2021/09/06 03:19:33;;;;;;;17.75;15.95;;;13.90;99.90;;;;;;2080846;28;20076;-75
2021/09/06 03:20:34;;;;;;;17.88;16.05;;;13.80;99.90;;;;;;2079404;28;20024;-75
2021/09/06 03:21:35;;;;;;;17.92;16.02;;;13.80;99.90;;;;;;2079493;28;20021;-75
2021/09/06 03:22:35;;;;;;;19.88;16.27;;;13.80;99.90;;;;;;2078383;28;20033;-75
2021/09/06 03:23:36;;;;;;;20.23;16.08;;;13.80;99.90;;;;;;2079151;28;20433;-75
2021/09/06 03:24:37;;;;;;;19.85;16.90;;;13.80;99.90;;;;;;2079647;28;20025;-75
2021/09/06 03:25:37;;;;;;;18.25;15.80;;;13.80;99.90;;;;;;2079371;28;20025;-75
2021/09/06 03:26:38;;;;;;;18.98;15.50;;;13.80;99.90;;;;;;2079539;28;20032;-75
2021/09/06 03:27:39;;;;;;;21.35;18.02;;;13.70;99.90;;;;;;2079464;28;20098;-75
2021/09/06 03:28:41;;;;;;;20.83;17.70;;;13.70;99.90;;;;;;2086283;28;20040;-75
2021/09/06 03:29:41;;;;;;;18.88;16.45;;;13.80;99.90;;;;;;2078636;28;20025;-76
2021/09/06 03:30:42;;;;;;;18.17;16.42;;;13.70;99.90;;;;;;2070725;28;20022;-75
2021/09/06 03:31:42;;;;;;;18.42;16.23;;;13.70;99.90;;;;;;2078544;28;20033;-75
2021/09/06 03:32:43;;;;;;;16.85;15.10;;;13.70;99.90;;;;;;2079444;28;20065;-75
2021/09/06 03:33:44;;;;;;;20.08;17.85;;;13.70;99.90;;;;;;2079285;28;20037;-76
2021/09/06 03:34:44;;;;;;;20.42;16.52;;;13.70;99.90;;;;;;2085047;28;20036;-75
2021/09/06 03:35:45;;;;;;;20.73;17.70;;;13.70;99.90;;;;;;2080087;28;20112;-75
2021/09/06 03:36:45;;;;;;;19.52;17.08;;;13.70;99.90;;;;;;2072093;28;20391;-75
2021/09/06 03:37:46;;;;;;;19.98;17.55;;;13.60;99.90;;;;;;2078799;28;20248;-75
2021/09/06 03:38:46;;;;;;;20.08;17.77;;;13.70;99.90;;;;;;2079786;28;20057;-75
2021/09/06 03:39:47;;;;;;;19.42;17.45;;;13.60;99.90;;;;;;2079554;28;20025;-75
2021/09/06 03:40:48;;;;;;;18.80;16.80;;;13.60;99.90;;;;;;2079598;28;20018;-75
2021/09/06 03:41:48;;;;;;;18.40;15.90;;;13.60;99.90;;;;;;2081210;28;20389;-76
2021/09/06 03:42:49;;;;;;;19.27;17.27;;;13.60;99.90;;;;;;2087355;28;20461;-75
2021/09/06 03:43:50;;;;;;;18.95;16.00;;;13.60;99.90;;;;;;2081086;28;20132;-75
2021/09/06 03:44:50;;;;;;;16.90;15.13;;;13.60;99.90;;;;;;2079411;28;20061;-75
2021/09/06 03:45:51;;;;;;;17.73;15.85;;;13.60;99.90;;;;;;2079267;28;20674;-75
2021/09/06 03:46:52;;;;;;;19.83;17.67;;;13.50;99.90;;;;;;2079602;28;20505;-75
2021/09/06 03:47:53;;;;;;;22.20;16.60;;;13.60;99.90;;;;;;2079608;28;20040;-75
2021/09/06 03:48:53;;;;;;;18.00;15.77;;;13.60;99.90;;;;;;2079576;28;20065;-75
2021/09/06 03:49:54;;;;;;;19.17;17.27;;;13.50;99.90;;;;;;2079266;28;20030;-74
2021/09/06 03:50:54;;;;;;;20.63;17.00;;;13.50;99.90;;;;;;2079586;28;20445;-75
2021/09/06 03:51:55;;;;;;;19.70;16.10;;;13.50;99.90;;;;;;2079202;28;20358;-75
2021/09/06 03:52:55;;;;;;;18.52;16.17;;;13.50;99.90;;;;;;2079302;28;20454;-75
2021/09/06 03:53:57;;;;;;;18.95;16.92;;;13.50;99.90;;;;;;2078736;28;20075;-75
2021/09/06 03:54:57;;;;;;;19.80;17.70;;;13.50;99.90;;;;;;2078587;28;20068;-75
2021/09/06 03:55:58;;;;;;;19.00;17.00;;;13.50;99.90;;;;;;2078814;28;20029;-75
2021/09/06 03:56:58;;;;;;;21.63;16.02;;;13.50;99.90;;;;;;2085387;28;20021;-75
2021/09/06 03:57:59;;;;;;;18.75;16.75;;;13.50;99.90;;;;;;2085011;28;20500;-74
2021/09/06 03:59:00;;;;;;;20.90;18.73;;;13.50;99.90;;;;;;2086915;28;20521;-75
2021/09/06 04:00:00;;;;;;;22.77;17.83;;;13.50;99.90;;;;;;2081407;28;20038;-75
2021/09/06 04:01:01;;;;;;;20.42;17.63;;;13.50;99.90;;;;;;2079498;28;20489;-75
2021/09/06 04:02:01;;;;;;;22.45;18.13;;;13.40;99.90;;;;;;2080643;28;20028;-75
2021/09/06 04:03:02;;;;;;;24.25;20.33;;;13.40;99.90;;;;;;2079294;28;20116;-75
2021/09/06 04:04:03;;;;;;;19.10;17.05;;;13.40;99.90;;;;;;2080255;28;20021;-75
2021/09/06 04:05:04;;;;;;;18.70;16.90;;;13.40;99.90;;;;;;2080310;28;20026;-75
2021/09/06 04:06:04;;;;;;;23.80;17.77;;;13.40;99.90;;;;;;2081114;28;20028;-75
2021/09/06 04:07:05;;;;;;;22.52;16.83;;;13.40;99.90;;;;;;2080179;28;20057;-75
2021/09/06 04:08:06;;;;;;;20.45;17.17;;;13.40;99.90;;;;;;2072007;28;20490;-75
2021/09/06 04:09:06;;;;;;;18.52;16.60;;;13.40;99.90;;;;;;2086464;28;20017;-75
2021/09/06 04:10:08;;;;;;;19.95;17.80;;;13.40;99.90;;;;;;2080986;28;20033;-75
2021/09/06 04:11:09;;;;;;;20.30;18.20;;;13.40;99.90;;;;;;2087561;28;20083;-75
2021/09/06 04:12:10;;;;;;;20.73;18.58;;;13.30;99.90;;;;;;2081008;28;20029;-75
2021/09/06 04:13:11;;;;;;;21.65;18.92;;;13.30;99.90;;;;;;2079543;28;20402;-74
2021/09/06 04:14:15;;;;;;;21.35;17.48;;;13.30;99.90;;;;;;2080209;28;20045;-75
2021/09/06 04:15:16;;;;;;;21.23;18.85;;;13.30;99.90;;;;;;2080638;28;20025;-75
2021/09/06 04:16:17;;;;;;;21.52;18.15;;;13.30;99.90;;;;;;2081118;28;20057;-75
2021/09/06 04:17:17;;;;;;;19.30;17.25;;;13.30;99.90;;;;;;2080651;28;20096;-75
2021/09/06 04:18:18;;;;;;;22.55;18.10;;;13.30;99.90;;;;;;2080252;28;20068;-75
2021/09/06 04:19:18;;;;;;;19.25;16.75;;;13.30;99.90;;;;;;2079849;28;20029;-75
2021/09/06 04:20:19;;;;;;;20.05;17.30;;;13.30;99.90;;;;;;2080066;28;20116;-75
2021/09/06 04:21:19;;;;;;;22.77;18.55;;;13.30;99.90;;;;;;2079835;28;20054;-75
2021/09/06 04:22:20;;;;;;;22.63;18.85;;;13.20;99.90;;;;;;2079892;28;20026;-75
2021/09/06 04:23:21;;;;;;;20.33;18.20;;;13.20;99.90;;;;;;2071724;28;20061;-75
2021/09/06 04:24:23;;;;;;;21.85;18.17;;;13.20;99.90;;;;;;2080197;28;20032;-75
2021/09/06 04:25:24;;;;;;;19.92;17.83;;;13.20;99.90;;;;;;2080460;28;20018;-75
2021/09/06 04:26:24;;;;;;;21.42;19.13;;;13.20;99.90;;;;;;2082345;28;20473;-75
2021/09/06 04:27:25;;;;;;;19.90;17.60;;;13.20;99.90;;;;;;2084518;28;20029;-75
2021/09/06 04:28:26;;;;;;;19.27;16.15;;;13.20;99.90;;;;;;2080513;28;20029;-75
2021/09/06 04:29:26;;;;;;;20.20;18.00;;;13.20;99.90;;;;;;2080802;28;20021;-75
2021/09/06 04:30:27;;;;;;;21.23;18.10;;;13.20;99.90;;;;;;2080676;28;20485;-74
2021/09/06 04:31:27;;;;;;;20.85;18.15;;;13.10;99.90;;;;;;2080510;28;20038;-75
2021/09/06 04:32:28;;;;;;;20.30;18.13;;;13.10;99.90;;;;;;2080828;28;20035;-75
2021/09/06 04:33:29;;;;;;;21.02;18.67;;;13.10;99.90;;;;;;2080315;28;20095;-74
2021/09/06 04:34:29;;;;;;;22.73;20.30;;;13.10;99.90;;;;;;2081674;28;20632;-75
2021/09/06 04:35:30;;;;;;;21.33;18.45;;;13.10;99.90;;;;;;2084317;28;20389;-74
2021/09/06 04:36:30;;;;;;;21.30;18.98;;;13.10;99.90;;;;;;2082125;28;20082;-75
2021/09/06 04:37:31;;;;;;;22.52;19.30;;;13.10;99.90;;;;;;2081215;28;20416;-75
2021/09/06 04:38:32;;;;;;;21.80;18.70;;;13.10;99.90;;;;;;2080589;28;20049;-75
2021/09/06 04:39:33;;;;;;;22.30;18.65;;;13.10;99.90;;;;;;2080580;28;20030;-75
2021/09/06 04:40:34;;;;;;;21.25;18.52;;;13.10;99.90;;;;;;2079589;28;20025;-75
2021/09/06 04:41:35;;;;;;;20.95;18.15;;;13.10;99.90;;;;;;2079778;28;20507;-75
2021/09/06 04:42:35;;;;;;;24.60;19.35;;;13.10;99.90;;;;;;2080488;28;20377;-75
2021/09/06 04:43:36;;;;;;;21.23;18.35;;;13.00;99.90;;;;;;2080247;28;20072;-75
2021/09/06 04:44:36;;;;;;;19.98;17.38;;;13.00;99.90;;;;;;2079928;28;20445;-75
2021/09/06 04:45:37;;;;;;;22.60;19.77;;;13.00;99.90;;;;;;2080704;28;20033;-75
2021/09/06 04:46:37;;;;;;;22.23;19.33;;;13.00;99.90;;;;;;2080266;28;20032;-75
2021/09/06 04:47:38;;;;;;;21.00;18.48;;;13.00;99.90;;;;;;2080417;28;20041;-75
2021/09/06 04:48:39;;;;;;;22.65;18.73;;;13.00;99.90;;;;;;2080202;28;20027;-74
2021/09/06 04:49:39;;;;;;;24.25;19.67;;;13.00;99.90;;;;;;2080842;28;20037;-75
2021/09/06 04:50:40;;;;;;;21.80;18.80;;;13.00;99.90;;;;;;2084205;28;20052;-75
2021/09/06 04:51:40;;;;;;;21.92;19.60;;;13.00;99.90;;;;;;2085067;28;20041;-75
2021/09/06 04:52:41;;;;;;;22.40;20.00;;;13.00;99.90;;;;;;2080242;28;20481;-75
2021/09/06 04:53:42;;;;;;;21.90;19.60;;;13.00;99.90;;;;;;2080561;28;20057;-75
2021/09/06 04:54:42;;;;;;;22.48;19.55;;;13.00;99.90;;;;;;2080319;28;20053;-75
2021/09/06 04:55:43;;;;;;;20.17;17.80;;;13.00;99.90;;;;;;2080649;28;20029;-75
2021/09/06 04:56:43;;;;;;;20.65;18.02;;;13.00;99.90;;;;;;2081132;28;20037;-75
2021/09/06 04:57:45;;;;;;;19.15;17.05;;;12.90;99.90;;;;;;2079744;28;20029;-75
2021/09/06 04:58:46;;;;;;;19.98;17.58;;;12.90;99.90;;;;;;2077311;28;20030;-75
2021/09/06 04:59:46;;;;;;;20.85;17.95;;;12.90;99.90;;;;;;2084428;28;20026;-75
2021/09/06 05:00:47;;;;;;;21.55;19.25;;;12.90;99.90;;;;;;2080615;28;20066;-75
2021/09/06 05:01:48;;;;;;;21.33;18.50;;;12.90;99.90;;;;;;2080245;28;20033;-75
2021/09/06 05:02:49;;;;;;;21.88;18.05;;;12.90;99.90;;;;;;2080106;28;20104;-75
2021/09/06 05:03:49;;;;;;;23.73;19.73;;;12.90;99.90;;;;;;2079586;28;20025;-75
2021/09/06 05:04:50;;;;;;;20.65;18.15;;;12.90;99.90;;;;;;2079710;28;20105;-75
2021/09/06 05:05:50;;;;;;;20.90;18.63;;;12.90;99.90;;;;;;2087753;28;20082;-75
2021/09/06 05:06:53;;;;;;;22.10;19.75;;;12.90;99.90;;;;;;2080369;28;20072;-75
2021/09/06 05:07:53;;;;;;;21.45;19.15;;;12.90;99.90;;;;;;2079933;28;20034;-75
2021/09/06 05:08:54;;;;;;;20.75;18.52;;;12.90;99.90;;;;;;2085377;28;20029;-74